Time;durP1;ratioP1;P1;durP2;ratioP2;P2;SDS_P1;SDS_P2;PMS_P1;PMS_P2;Temp;Humidity;BMP_temperature;BMP_pressure;BME280_temperature;BME280_humidity;BME280_pressure;Samples;Min_cycle;Max_cycle;Signal;HPM_P1;HPM_P2
2023/01/03 00:01:25;;;;;;;13.80;6.57;;;4.00;99.90;;;;;;5000757;28;20571;-64
2023/01/03 00:03:55;;;;;;;14.02;6.03;;;4.10;99.90;;;;;;5016442;28;20514;-64
2023/01/03 00:06:26;;;;;;;18.25;6.20;;;4.10;99.90;;;;;;5015549;28;20042;-65
2023/01/03 00:08:53;;;;;;;15.23;5.78;;;4.10;99.90;;;;;;5015235;28;20045;-65
2023/01/03 00:14:22;;;;;;;11.63;5.57;;;3.90;99.90;;;;;;5015303;28;20425;-65
2023/01/03 00:16:54;;;;;;;12.88;6.10;;;4.20;99.90;;;;;;5016274;28;20041;-66
2023/01/03 00:19:22;;;;;;;16.93;6.13;;;4.00;99.90;;;;;;5015451;28;20147;-64
2023/01/03 00:21:47;;;;;;;14.48;6.03;;;3.90;99.90;;;;;;5014671;28;20283;-64
2023/01/03 00:24:13;;;;;;;11.95;5.40;;;3.90;99.90;;;;;;5000408;28;20052;-65
2023/01/03 00:26:39;;;;;;;12.60;5.50;;;4.20;99.90;;;;;;5014396;28;20514;-65
2023/01/03 00:29:06;;;;;;;10.90;5.18;;;3.80;99.90;;;;;;5013613;28;20049;-64
2023/01/03 00:31:32;;;;;;;12.70;4.95;;;3.80;99.90;;;;;;5014422;28;20044;-63
2023/01/03 00:33:58;;;;;;;13.25;5.90;;;3.90;99.90;;;;;;4982556;28;20041;-64
2023/01/03 00:36:24;;;;;;;13.07;5.38;;;4.00;99.90;;;;;;4983348;28;20041;-64
2023/01/03 00:38:52;;;;;;;11.27;5.45;;;3.70;99.90;;;;;;5016507;28;20091;-64
2023/01/03 00:41:19;;;;;;;11.75;5.13;;;3.80;99.90;;;;;;5016185;28;20507;-64
2023/01/03 00:43:47;;;;;;;12.00;4.68;;;3.70;99.90;;;;;;4999574;28;20045;-65
2023/01/03 00:46:15;;;;;;;10.40;4.85;;;3.60;99.90;;;;;;5013571;28;20041;-65
2023/01/03 00:48:41;;;;;;;21.35;5.47;;;3.70;99.90;;;;;;4999579;28;20045;-65
2023/01/03 00:51:16;;;;;;;14.00;5.00;;;3.50;99.90;;;;;;5016643;28;20507;-66
2023/01/03 00:53:44;;;;;;;15.40;5.03;;;3.80;99.90;;;;;;4998241;28;20117;-65
2023/01/03 00:56:13;;;;;;;13.82;4.78;;;3.70;99.90;;;;;;5015179;28;20103;-66
2023/01/03 00:58:39;;;;;;;12.55;4.47;;;3.40;99.90;;;;;;4998447;28;20461;-65
2023/01/03 01:01:11;;;;;;;11.90;4.18;;;3.50;99.90;;;;;;5014373;28;20103;-64
2023/01/03 01:03:41;;;;;;;11.03;4.40;;;3.40;99.90;;;;;;5017222;28;20449;-65
2023/01/03 01:06:31;;;;;;;12.55;3.60;;;3.30;99.90;;;;;;5016221;28;20289;-65
2023/01/03 01:08:58;;;;;;;13.48;3.55;;;3.30;99.90;;;;;;5028300;28;20061;-64
2023/01/03 01:11:26;;;;;;;9.80;3.22;;;3.10;99.90;;;;;;5017296;28;20116;-64
2023/01/03 01:13:52;;;;;;;11.55;3.53;;;3.10;99.90;;;;;;5019045;28;20077;-64
2023/01/03 01:16:27;;;;;;;13.15;3.45;;;3.20;99.90;;;;;;5017930;28;20954;-64
2023/01/03 01:18:53;;;;;;;12.60;3.20;;;3.40;99.90;;;;;;5034627;28;20383;-64
2023/01/03 01:21:29;;;;;;;10.43;2.90;;;3.30;99.90;;;;;;5004305;28;20139;-64
2023/01/03 01:23:56;;;;;;;9.05;1.85;;;3.30;99.90;;;;;;5018002;28;20041;-64
2023/01/03 01:26:23;;;;;;;9.38;1.77;;;3.40;99.90;;;;;;4988245;28;20231;-64
2023/01/03 01:28:51;;;;;;;10.13;1.20;;;3.30;99.90;;;;;;5035091;28;20053;-65
2023/01/03 01:31:19;;;;;;;7.35;1.17;;;3.50;99.90;;;;;;5001466;28;20045;-65
2023/01/03 01:33:45;;;;;;;8.05;1.25;;;3.50;99.90;;;;;;5018368;28;20041;-65
2023/01/03 01:36:33;;;;;;;7.88;0.90;;;3.50;99.90;;;;;;5034741;28;20033;-64
2023/01/03 01:39:03;;;;;;;10.73;0.68;;;3.60;99.90;;;;;;5018118;28;20368;-64
2023/01/03 01:44:39;;;;;;;6.65;0.93;;;3.60;99.90;;;;;;5017086;28;20045;-65
2023/01/03 01:47:23;;;;;;;4.68;0.65;;;3.80;1.00;;;;;;5034286;28;20047;-64
2023/01/03 01:49:54;;;;;;;7.97;0.60;;;3.80;1.00;;;;;;5040242;28;20095;-65
2023/01/03 01:52:20;;;;;;;5.75;0.80;;;3.80;1.00;;;;;;5018147;28;21020;-64
2023/01/03 01:54:49;;;;;;;7.55;0.52;;;3.60;1.00;;;;;;5002112;28;20661;-65
2023/01/03 01:57:16;;;;;;;4.90;0.52;;;3.70;1.00;;;;;;5017606;28;20067;-65
2023/01/03 01:59:42;;;;;;;7.13;0.77;;;3.70;1.00;;;;;;5037056;28;20328;-64
2023/01/03 02:02:08;;;;;;;5.25;0.80;;;3.60;1.00;;;;;;5034500;28;20126;-63
2023/01/03 02:04:38;;;;;;;7.38;0.80;;;3.60;1.00;;;;;;4984861;28;20033;-64
2023/01/03 02:07:06;;;;;;;5.50;0.85;;;3.70;1.00;;;;;;5034941;28;20049;-63
2023/01/03 02:09:34;;;;;;;7.07;0.80;;;3.70;1.00;;;;;;5034784;28;20053;-63
2023/01/03 02:15:18;;;;;;;3.83;0.50;;;3.70;1.00;;;;;;5035838;28;20040;-63
2023/01/03 02:18:13;;;;;;;9.57;0.90;;;3.60;1.00;;;;;;5037753;28;20054;-64
2023/01/03 02:21:00;;;;;;;8.63;1.00;;;3.70;1.00;;;;;;5021664;28;20049;-64
2023/01/03 02:23:44;;;;;;;5.03;0.98;;;3.80;1.00;;;;;;5037966;28;20113;-64
2023/01/03 02:26:32;;;;;;;6.97;0.85;;;3.90;48.30;;;;;;5020554;28;20521;-63
2023/01/03 02:29:19;;;;;;;6.43;0.80;;;4.00;5.70;;;;;;5021285;28;20048;-64
2023/01/03 02:32:02;;;;;;;9.00;1.00;;;3.90;80.20;;;;;;5010691;28;20079;-63
2023/01/03 02:34:46;;;;;;;8.13;1.00;;;4.00;48.80;;;;;;5020641;28;20120;-65
2023/01/03 02:37:41;;;;;;;6.63;1.02;;;3.80;96.00;;;;;;5038989;28;20039;-64
2023/01/03 02:40:29;;;;;;;8.18;1.40;;;3.80;99.90;;;;;;4992128;28;20052;-64
2023/01/03 02:43:18;;;;;;;8.43;1.52;;;3.90;99.90;;;;;;5010850;28;20045;-64
2023/01/03 02:46:29;;;;;;;7.15;1.90;;;3.90;99.90;;;;;;5022504;28;20046;-64
2023/01/03 02:49:01;;;;;;;8.93;2.10;;;4.10;99.90;;;;;;5038500;28;20028;-65
2023/01/03 02:51:36;;;;;;;8.63;2.17;;;4.00;99.90;;;;;;5039594;28;20701;-63
2023/01/03 02:54:06;;;;;;;7.47;2.20;;;3.90;99.90;;;;;;5021447;28;20044;-62
2023/01/03 02:56:41;;;;;;;5.85;2.00;;;4.00;99.90;;;;;;5022181;28;20123;-64
2023/01/03 02:59:13;;;;;;;6.90;1.98;;;3.90;99.90;;;;;;5038781;28;20495;-65
2023/01/03 03:01:43;;;;;;;8.90;2.08;;;4.20;99.90;;;;;;5019125;28;20054;-63
2023/01/03 03:04:11;;;;;;;10.43;2.38;;;4.10;99.90;;;;;;5035375;28;20045;-66
2023/01/03 03:06:52;;;;;;;9.00;1.80;;;4.20;99.90;;;;;;5020287;28;20086;-65
2023/01/03 03:09:18;;;;;;;9.68;2.17;;;4.20;99.90;;;;;;5019859;28;20048;-65
2023/01/03 03:14:41;;;;;;;9.75;2.20;;;4.10;99.90;;;;;;5038172;28;20481;-62
2023/01/03 03:17:12;;;;;;;9.73;2.88;;;4.00;99.90;;;;;;5037867;28;20043;-64
2023/01/03 03:25:23;;;;;;;11.77;3.85;;;3.60;99.90;;;;;;5036663;28;20072;-63
2023/01/03 03:30:41;;;;;;;9.02;4.88;;;3.70;99.90;;;;;;5019565;28;21174;-64
2023/01/03 03:33:10;;;;;;;15.38;4.90;;;3.30;99.90;;;;;;5003310;28;20087;-64
2023/01/03 03:36:01;;;;;;;15.98;5.07;;;3.20;99.90;;;;;;5038674;28;20052;-63
2023/01/03 03:38:33;;;;;;;14.88;5.88;;;3.20;99.90;;;;;;5037752;28;20049;-63
2023/01/03 03:44:59;;;;;;;14.97;6.77;;;3.00;99.90;;;;;;5037083;28;20137;-64
2023/01/03 03:47:03;;;;;;;14.43;5.53;;;2.80;99.90;;;;;;5018835;28;20294;-64
2023/01/03 03:49:38;;;;;;;14.63;6.35;;;2.90;99.90;;;;;;5037065;28;20041;-63
2023/01/03 03:52:14;;;;;;;11.93;6.65;;;2.80;99.90;;;;;;5001582;28;20045;-63
2023/01/03 03:54:45;;;;;;;14.85;6.57;;;2.60;99.90;;;;;;5037110;28;20102;-62
2023/01/03 03:57:24;;;;;;;18.90;6.15;;;2.30;99.90;;;;;;5036511;28;20033;-65
2023/01/03 03:59:55;;;;;;;19.55;6.93;;;2.60;99.90;;;;;;5037004;28;20041;-64
2023/01/03 04:02:23;;;;;;;18.73;7.22;;;2.40;99.90;;;;;;5037657;28;20034;-63
2023/01/03 04:04:54;;;;;;;18.45;7.32;;;2.30;99.90;;;;;;5018508;28;20559;-64
2023/01/03 04:07:20;;;;;;;18.52;6.75;;;2.20;99.90;;;;;;5037015;28;20578;-63
2023/01/03 04:09:45;;;;;;;21.35;7.68;;;2.10;99.90;;;;;;5018757;28;20094;-63
2023/01/03 04:12:11;;;;;;;18.83;8.32;;;2.40;99.90;;;;;;5017811;28;20067;-64
2023/01/03 04:14:37;;;;;;;17.00;7.93;;;2.40;99.90;;;;;;5018727;28;20495;-63
2023/01/03 04:17:02;;;;;;;17.55;8.20;;;2.10;99.90;;;;;;5018838;28;20047;-63
2023/01/03 04:19:28;;;;;;;16.95;7.15;;;2.10;99.90;;;;;;5018368;28;20319;-62
2023/01/03 04:21:54;;;;;;;15.35;7.22;;;2.10;99.90;;;;;;5037043;28;20064;-63
2023/01/03 04:24:21;;;;;;;16.88;6.78;;;2.30;99.90;;;;;;5036397;28;20411;-64
2023/01/03 04:26:47;;;;;;;11.10;6.00;;;2.00;99.90;;;;;;5037363;28;20056;-64
2023/01/03 04:29:13;;;;;;;14.40;6.68;;;2.00;99.90;;;;;;5036134;28;20076;-63
2023/01/03 04:31:38;;;;;;;17.35;7.50;;;2.40;99.90;;;;;;5018495;28;20044;-63
2023/01/03 04:34:04;;;;;;;14.43;6.80;;;2.30;99.90;;;;;;5001580;28;20395;-63
2023/01/03 04:36:30;;;;;;;17.45;6.93;;;2.10;99.90;;;;;;4997306;28;20572;-63
2023/01/03 04:38:55;;;;;;;14.73;7.35;;;1.90;99.90;;;;;;5006377;28;20045;-63
2023/01/03 04:41:21;;;;;;;18.70;7.32;;;2.10;99.90;;;;;;5001379;28;20256;-64
2023/01/03 04:44:03;;;;;;;18.00;8.43;;;2.20;99.90;;;;;;5019364;28;20037;-63
2023/01/03 04:46:37;;;;;;;21.55;8.80;;;2.00;99.90;;;;;;5042260;28;20102;-62
2023/01/03 04:49:05;;;;;;;20.55;8.70;;;1.90;99.90;;;;;;5035794;28;20665;-64
2023/01/03 04:51:31;;;;;;;16.10;7.72;;;1.90;99.90;;;;;;5036562;28;20526;-63
2023/01/03 04:53:57;;;;;;;16.52;8.27;;;1.70;99.90;;;;;;5019124;28;20041;-64
2023/01/03 04:56:25;;;;;;;22.95;9.40;;;2.00;99.90;;;;;;5036724;28;21189;-64
2023/01/03 04:58:51;;;;;;;15.23;8.25;;;2.00;99.90;;;;;;5037592;28;20052;-63
2023/01/03 05:01:16;;;;;;;19.50;9.18;;;1.70;99.90;;;;;;5036558;28;20040;-63
2023/01/03 05:03:42;;;;;;;17.05;10.00;;;2.00;99.90;;;;;;5036393;28;20056;-64
2023/01/03 05:06:09;;;;;;;16.50;9.73;;;1.60;99.90;;;;;;5036145;28;20126;-63
2023/01/03 05:08:35;;;;;;;20.73;10.10;;;2.00;99.90;;;;;;5017158;28;20056;-64
2023/01/03 05:11:02;;;;;;;22.90;10.65;;;1.60;99.90;;;;;;5001983;28;20055;-64
2023/01/03 05:13:27;;;;;;;20.00;10.82;;;1.80;99.90;;;;;;5018142;28;20045;-64
2023/01/03 05:15:53;;;;;;;22.88;11.45;;;2.20;99.90;;;;;;5020405;28;20048;-62
2023/01/03 05:18:19;;;;;;;20.65;10.15;;;1.80;99.90;;;;;;5037115;28;20047;-64
2023/01/03 05:26:16;;;;;;;22.58;12.55;;;2.40;99.90;;;;;;5019035;28;20053;-65
2023/01/03 05:28:44;;;;;;;24.00;13.15;;;2.10;99.90;;;;;;5018691;28;20497;-63
2023/01/03 05:31:10;;;;;;;30.00;14.38;;;2.30;99.90;;;;;;5016669;28;20073;-64
2023/01/03 05:33:40;;;;;;;30.13;15.13;;;2.30;99.90;;;;;;5002372;28;20478;-65
2023/01/03 05:36:06;;;;;;;24.67;14.90;;;2.70;99.90;;;;;;5001388;28;20040;-66
2023/01/03 05:38:32;;;;;;;26.25;15.73;;;2.30;99.90;;;;;;5019350;28;20424;-64
2023/01/03 05:40:58;;;;;;;22.95;14.57;;;2.60;99.90;;;;;;5018274;28;20102;-64
2023/01/03 05:43:24;;;;;;;25.73;15.02;;;2.50;99.90;;;;;;5001547;28;20172;-64
2023/01/03 05:45:51;;;;;;;30.15;15.63;;;2.40;99.90;;;;;;5001726;28;20394;-64
2023/01/03 05:48:18;;;;;;;28.02;16.25;;;2.80;99.90;;;;;;5018530;28;20052;-63
2023/01/03 05:50:44;;;;;;;28.90;16.58;;;2.80;99.90;;;;;;5036980;28;20041;-64
2023/01/03 05:53:10;;;;;;;27.00;17.13;;;2.90;99.90;;;;;;5022149;28;20052;-64
2023/01/03 05:55:36;;;;;;;29.75;16.15;;;2.60;99.90;;;;;;5021941;28;20040;-65
2023/01/03 05:58:02;;;;;;;33.97;18.58;;;3.00;99.90;;;;;;5013488;28;20095;-65
2023/01/03 06:00:28;;;;;;;28.45;16.80;;;2.60;99.90;;;;;;5022066;28;20109;-64
2023/01/03 06:02:54;;;;;;;28.60;18.10;;;2.60;99.90;;;;;;5021582;28;20461;-65
2023/01/03 06:05:20;;;;;;;29.42;17.13;;;3.00;99.90;;;;;;5038416;28;20043;-66
2023/01/03 06:07:46;;;;;;;33.95;19.30;;;3.00;99.90;;;;;;5020400;28;20580;-65
2023/01/03 06:10:11;;;;;;;30.52;18.48;;;2.70;99.90;;;;;;5039077;28;20228;-64
2023/01/03 06:12:37;;;;;;;36.30;19.10;;;2.80;99.90;;;;;;5021143;28;20037;-64
2023/01/03 06:15:03;;;;;;;32.38;18.27;;;3.20;99.90;;;;;;5021875;28;20435;-64
2023/01/03 06:20:13;;;;;;;32.72;20.63;;;3.30;99.90;;;;;;5038960;28;20122;-65
2023/01/03 06:22:39;;;;;;;32.83;18.55;;;3.20;99.90;;;;;;5021797;28;20049;-64
2023/01/03 06:25:05;;;;;;;30.60;18.25;;;3.30;99.90;;;;;;5021325;28;20190;-65
2023/01/03 06:27:31;;;;;;;28.33;18.02;;;3.20;99.90;;;;;;4995477;28;20051;-64
2023/01/03 06:29:56;;;;;;;31.98;17.98;;;3.30;99.90;;;;;;5020881;28;20045;-65
2023/01/03 06:32:22;;;;;;;31.05;19.77;;;3.10;99.90;;;;;;5004402;28;20126;-65
2023/01/03 06:34:48;;;;;;;32.10;19.23;;;3.40;99.90;;;;;;5019912;28;20044;-63
2023/01/03 06:37:14;;;;;;;34.00;19.38;;;3.50;99.90;;;;;;5039015;28;20101;-64
2023/01/03 06:39:39;;;;;;;29.55;18.02;;;3.20;99.90;;;;;;5039551;28;20341;-64
2023/01/03 06:53:14;;;;;;;29.35;18.70;;;3.20;99.90;;;;;;5039787;28;20129;-65
2023/01/03 06:55:41;;;;;;;30.55;18.45;;;3.50;99.90;;;;;;5007285;28;20117;-65
2023/01/03 06:58:06;;;;;;;29.60;18.35;;;3.50;99.90;;;;;;5037046;28;20049;-65
2023/01/03 07:00:35;;;;;;;33.58;20.40;;;3.50;99.90;;;;;;5040006;28;20071;-65
2023/01/03 07:03:01;;;;;;;36.92;21.33;;;3.20;99.90;;;;;;5021485;28;20053;-65
2023/01/03 07:05:27;;;;;;;32.75;20.40;;;3.30;99.90;;;;;;4988321;28;20045;-65
2023/01/03 07:07:52;;;;;;;31.75;20.15;;;3.50;99.90;;;;;;5039743;28;20052;-64
2023/01/03 07:10:18;;;;;;;31.40;20.02;;;3.20;99.90;;;;;;5022632;28;20306;-65
2023/01/03 07:15:28;;;;;;;33.53;21.33;;;3.00;99.90;;;;;;5051683;28;20041;-64
2023/01/03 07:17:54;;;;;;;32.20;21.48;;;3.10;99.90;;;;;;5023024;28;20041;-64
2023/01/03 07:20:20;;;;;;;39.80;21.95;;;3.00;99.90;;;;;;5023905;28;20072;-63
2023/01/03 07:22:45;;;;;;;36.22;24.33;;;3.20;99.90;;;;;;5042596;28;20151;-63
2023/01/03 07:25:11;;;;;;;38.20;23.33;;;3.10;99.90;;;;;;5023312;28;20045;-63
2023/01/03 07:27:37;;;;;;;39.80;24.55;;;2.90;99.90;;;;;;5006912;28;20080;-64
2023/01/03 07:30:03;;;;;;;40.50;25.23;;;2.80;99.90;;;;;;5023524;28;20546;-63
2023/01/03 07:32:29;;;;;;;40.40;25.42;;;2.80;99.90;;;;;;5042144;28;20797;-62
2023/01/03 07:34:54;;;;;;;42.45;26.17;;;2.80;99.90;;;;;;5023828;28;20379;-63
2023/01/03 07:37:20;;;;;;;46.55;26.75;;;3.20;99.90;;;;;;5023449;28;20047;-63
2023/01/03 07:39:45;;;;;;;45.13;26.27;;;3.20;99.90;;;;;;5023934;28;20051;-64
2023/01/03 07:44:55;;;;;;;47.20;28.08;;;2.70;99.90;;;;;;5007322;28;20045;-63
2023/01/03 07:47:21;;;;;;;44.85;26.67;;;2.80;99.90;;;;;;5005122;28;20045;-64
2023/01/03 07:49:47;;;;;;;48.95;28.35;;;2.90;99.90;;;;;;5039554;28;20041;-66
2023/01/03 07:52:12;;;;;;;49.00;28.40;;;2.90;99.90;;;;;;5019991;28;20037;-64
2023/01/03 07:54:38;;;;;;;52.50;30.55;;;2.40;99.90;;;;;;5044306;28;20043;-63
2023/01/03 07:57:03;;;;;;;50.90;29.15;;;2.60;99.90;;;;;;5009464;28;20124;-64
2023/01/03 07:59:29;;;;;;;45.17;27.27;;;2.40;99.90;;;;;;5013317;28;20041;-64
2023/01/03 08:01:55;;;;;;;48.95;28.58;;;2.70;99.90;;;;;;5021093;28;20053;-64
2023/01/03 08:04:20;;;;;;;51.15;30.00;;;2.50;99.90;;;;;;5021095;28;20485;-65
2023/01/03 08:06:46;;;;;;;55.55;30.48;;;2.30;99.90;;;;;;5038880;28;20041;-63
2023/01/03 08:14:41;;;;;;;50.95;29.27;;;2.20;99.90;;;;;;5037024;28;20048;-65
2023/01/03 08:17:07;;;;;;;50.55;28.08;;;2.60;99.90;;;;;;5003169;28;20033;-64
2023/01/03 08:19:33;;;;;;;48.15;28.80;;;2.30;99.90;;;;;;5039247;28;20475;-65
2023/01/03 08:21:59;;;;;;;47.13;28.63;;;2.10;99.90;;;;;;5021676;28;20398;-65
2023/01/03 08:24:24;;;;;;;49.22;28.17;;;2.50;99.90;;;;;;4987651;28;20057;-64
2023/01/03 08:26:50;;;;;;;43.92;23.95;;;2.10;99.90;;;;;;5020545;28;20057;-65
2023/01/03 08:29:16;;;;;;;46.83;28.05;;;2.50;99.90;;;;;;5004589;28;20041;-66
2023/01/03 08:31:54;;;;;;;43.17;27.67;;;2.30;99.90;;;;;;5020633;28;20123;-64
2023/01/03 08:34:21;;;;;;;44.92;26.83;;;2.60;99.90;;;;;;5038421;28;20640;-64
2023/01/03 08:36:51;;;;;;;44.85;27.60;;;2.20;99.90;;;;;;5037241;28;20049;-64
2023/01/03 08:39:22;;;;;;;48.53;26.83;;;2.40;99.90;;;;;;5004473;28;20091;-64
2023/01/03 08:41:52;;;;;;;42.55;25.75;;;2.20;99.90;;;;;;5038363;28;20041;-63
2023/01/03 08:44:18;;;;;;;45.60;26.33;;;2.60;99.90;;;;;;5019892;28;20068;-66
2023/01/03 08:46:48;;;;;;;42.35;26.23;;;2.60;99.90;;;;;;5004622;28;20418;-64
2023/01/03 08:49:14;;;;;;;38.42;25.27;;;2.60;99.90;;;;;;5020701;28;20123;-64
2023/01/03 08:51:40;;;;;;;38.75;24.55;;;2.50;99.90;;;;;;5020873;28;20375;-66
2023/01/03 08:54:06;;;;;;;41.08;25.98;;;2.50;99.90;;;;;;5020896;28;20086;-65
2023/01/03 08:56:33;;;;;;;39.42;25.55;;;2.60;99.90;;;;;;5038287;28;20446;-64
2023/01/03 08:58:59;;;;;;;41.85;24.52;;;2.50;99.90;;;;;;5020217;28;20041;-64
2023/01/03 09:01:25;;;;;;;36.13;24.20;;;2.60;99.90;;;;;;4988141;28;20514;-65
2023/01/03 09:03:51;;;;;;;39.38;22.10;;;2.60;99.90;;;;;;5003995;28;20054;-64
2023/01/03 09:06:17;;;;;;;38.40;22.23;;;2.50;99.90;;;;;;5038472;28;20049;-64
2023/01/03 09:08:44;;;;;;;31.00;20.58;;;2.70;99.90;;;;;;5017281;28;20049;-64
2023/01/03 09:11:10;;;;;;;34.00;22.33;;;2.80;99.90;;;;;;5017214;28;20044;-65
2023/01/03 09:13:36;;;;;;;32.65;20.08;;;2.70;99.90;;;;;;5018706;28;20677;-64
2023/01/03 09:16:11;;;;;;;32.42;21.33;;;3.00;99.90;;;;;;5018002;28;20053;-63
2023/01/03 09:18:38;;;;;;;32.67;20.88;;;3.00;99.90;;;;;;5017912;28;20049;-65
2023/01/03 09:21:05;;;;;;;28.95;20.75;;;2.80;99.90;;;;;;5016116;28;20045;-64
2023/01/03 09:23:33;;;;;;;30.83;21.10;;;3.10;99.90;;;;;;4999057;28;20060;-65
2023/01/03 09:25:59;;;;;;;30.95;19.88;;;2.80;99.90;;;;;;5019368;28;20088;-65
2023/01/03 09:28:25;;;;;;;29.17;20.52;;;2.90;99.90;;;;;;5020449;28;20056;-64
2023/01/03 09:30:51;;;;;;;30.77;20.30;;;3.20;99.90;;;;;;5012426;28;20037;-65
2023/01/03 09:33:17;;;;;;;28.58;20.55;;;3.20;99.90;;;;;;5015928;28;20103;-63
2023/01/03 09:35:43;;;;;;;29.52;20.13;;;3.30;99.90;;;;;;4986884;28;20046;-64
2023/01/03 09:38:09;;;;;;;29.70;19.58;;;3.20;99.90;;;;;;5019090;28;20076;-63
2023/01/03 09:40:44;;;;;;;27.83;21.05;;;3.20;99.90;;;;;;5020505;28;20045;-65
2023/01/03 09:43:21;;;;;;;29.73;22.38;;;3.40;99.90;;;;;;5020825;28;20099;-63
2023/01/03 09:45:53;;;;;;;35.95;24.65;;;3.50;99.90;;;;;;5020660;28;20107;-63
2023/01/03 09:48:37;;;;;;;32.58;24.27;;;3.50;99.90;;;;;;5019978;28;20050;-64
2023/01/03 10:03:42;;;;;;;35.28;25.63;;;3.30;99.90;;;;;;5020253;28;20077;-63
2023/01/03 10:05:36;;;;;;;38.80;28.77;;;3.60;99.90;;;;;;5021569;28;20380;-65
2023/01/03 10:08:25;;;;;;;28.98;20.60;;;3.60;99.90;;;;;;5021466;28;20114;-64
2023/01/03 10:11:01;;;;;;;31.77;23.48;;;3.40;99.90;;;;;;5042229;28;20410;-67
2023/01/03 10:13:27;;;;;;;44.50;22.67;;;3.20;99.90;;;;;;5023684;28;20059;-65
2023/01/03 10:16:00;;;;;;;69.15;18.80;;;2.90;99.90;;;;;;5023085;28;20045;-65
2023/01/03 10:18:35;;;;;;;114.78;24.83;;;2.40;99.90;;;;;;5048016;28;20064;-64
2023/01/03 10:21:18;;;;;;;156.55;29.63;;;2.20;99.90;;;;;;5042002;28;20448;-65
2023/01/03 10:23:47;;;;;;;94.50;29.08;;;1.90;99.90;;;;;;5041202;28;20045;-64
2023/01/03 10:26:12;;;;;;;134.63;29.02;;;1.90;99.90;;;;;;5022845;28;20441;-65
2023/01/03 10:28:42;;;;;;;138.50;32.00;;;1.70;99.90;;;;;;5041310;28;20040;-64
2023/01/03 10:31:31;;;;;;;70.60;28.23;;;1.80;99.90;;;;;;5022772;28;20445;-64
2023/01/03 10:33:57;;;;;;;99.25;31.95;;;1.50;99.90;;;;;;5022844;28;20122;-66
2023/01/03 10:36:23;;;;;;;117.80;35.70;;;1.90;99.90;;;;;;5019791;28;20041;-65
2023/01/03 10:39:05;;;;;;;136.35;31.73;;;1.60;99.90;;;;;;5040951;28;20399;-65
2023/01/03 10:41:47;;;;;;;123.18;37.03;;;1.80;99.90;;;;;;5041099;28;20068;-65
2023/01/03 10:44:29;;;;;;;133.77;34.78;;;2.20;99.90;;;;;;5038901;28;20056;-63
2023/01/03 10:46:58;;;;;;;163.60;40.47;;;1.80;99.90;;;;;;5023061;28;20044;-64
2023/01/03 10:49:28;;;;;;;164.82;39.70;;;1.80;99.90;;;;;;5021962;28;20122;-64
2023/01/03 10:52:02;;;;;;;201.88;45.97;;;2.10;99.90;;;;;;5021524;28;20123;-65
2023/01/03 10:54:40;;;;;;;153.70;40.50;;;1.90;99.90;;;;;;5022251;28;20052;-65
2023/01/03 10:57:05;;;;;;;182.60;40.55;;;2.50;99.90;;;;;;5022321;28;20052;-64
2023/01/03 10:59:32;;;;;;;190.45;46.75;;;2.20;99.90;;;;;;5021390;28;20049;-65
2023/01/03 11:02:17;;;;;;;158.25;43.90;;;2.70;99.90;;;;;;5038919;28;20394;-65
2023/01/03 11:04:44;;;;;;;197.93;50.30;;;2.40;99.90;;;;;;5020775;28;20142;-67
2023/01/03 11:07:11;;;;;;;174.25;47.38;;;2.40;99.90;;;;;;5022436;28;20044;-64
2023/01/03 11:09:57;;;;;;;154.70;48.67;;;2.70;99.90;;;;;;5017524;28;20061;-65
2023/01/03 11:12:22;;;;;;;150.40;46.40;;;2.60;99.90;;;;;;5018548;28;20056;-64
2023/01/03 11:14:56;;;;;;;141.20;46.20;;;2.60;99.90;;;;;;5001560;28;20045;-65
2023/01/03 11:17:23;;;;;;;143.18;48.92;;;2.80;99.90;;;;;;5020909;28;20083;-65
2023/01/03 11:19:51;;;;;;;135.00;46.85;;;2.90;99.90;;;;;;5018424;28;20049;-66
2023/01/03 11:22:29;;;;;;;134.90;49.25;;;3.50;99.90;;;;;;5020370;28;20041;-64
2023/01/03 11:25:16;;;;;;;135.98;48.28;;;3.00;99.90;;;;;;5018891;28;20034;-64
2023/01/03 11:28:04;;;;;;;135.55;48.42;;;3.70;99.90;;;;;;5018018;28;20373;-63
2023/01/03 11:30:53;;;;;;;146.60;46.50;;;3.30;99.90;;;;;;5020098;28;20072;-65
2023/01/03 11:33:49;;;;;;;140.88;48.33;;;3.30;99.90;;;;;;5020110;28;20041;-65
2023/01/03 11:36:23;;;;;;;143.68;51.80;;;3.30;99.90;;;;;;5018684;28;20037;-63
2023/01/03 11:39:05;;;;;;;138.10;51.95;;;3.50;99.90;;;;;;5016866;28;20053;-64
2023/01/03 11:41:47;;;;;;;136.48;52.47;;;4.20;99.90;;;;;;5020627;28;20602;-65
2023/01/03 11:45:14;;;;;;;130.00;52.92;;;4.30;99.90;;;;;;5017607;28;20466;-65
2023/01/03 11:47:43;;;;;;;132.90;51.50;;;3.90;99.90;;;;;;4996315;28;20717;-64
2023/01/03 11:50:20;;;;;;;128.85;55.03;;;4.40;99.90;;;;;;5020647;28;20041;-64
2023/01/03 11:52:54;;;;;;;123.05;49.97;;;4.60;99.90;;;;;;5019551;28;20323;-63
2023/01/03 11:55:57;;;;;;;127.13;53.47;;;4.40;99.90;;;;;;5021673;28;20471;-63
2023/01/03 11:58:51;;;;;;;116.07;52.17;;;4.60;99.90;;;;;;5019245;28;20038;-64
2023/01/03 12:01:17;;;;;;;;;;;4.70;99.90;;;;;;5021106;28;20149;-66
2023/01/03 12:04:06;;;;;;;105.85;44.17;;;4.80;99.90;;;;;;5002015;28;20028;-65
2023/01/03 12:06:36;;;;;;;103.03;48.42;;;5.10;99.90;;;;;;5018789;28;20048;-65
2023/01/03 12:09:05;;;;;;;90.88;46.17;;;5.00;99.90;;;;;;5016834;28;20099;-63
2023/01/03 12:11:35;;;;;;;91.18;46.25;;;5.10;99.90;;;;;;5036291;28;20045;-63
2023/01/03 12:14:12;;;;;;;80.88;44.55;;;5.10;99.90;;;;;;5016775;28;20053;-64
2023/01/03 12:16:55;;;;;;;84.97;45.35;;;5.50;99.90;;;;;;5036058;28;20048;-61
2023/01/03 12:19:42;;;;;;;82.25;42.95;;;5.20;99.90;;;;;;5017910;28;20037;-63
2023/01/03 12:22:36;;;;;;;81.55;44.78;;;5.50;99.90;;;;;;5018920;28;20115;-64
2023/01/03 12:25:17;;;;;;;74.63;41.22;;;5.10;99.90;;;;;;5018341;28;20060;-63
2023/01/03 12:27:54;;;;;;;68.80;38.65;;;5.50;99.90;;;;;;5017914;28;20045;-63
2023/01/03 12:30:37;;;;;;;78.90;44.33;;;5.20;99.90;;;;;;5000689;28;20065;-62
2023/01/03 12:33:18;;;;;;;66.35;36.90;;;5.20;99.90;;;;;;5019306;28;20045;-65
2023/01/03 12:35:47;;;;;;;71.57;41.10;;;5.30;99.90;;;;;;5000693;28;20057;-64
2023/01/03 12:38:15;;;;;;;72.22;40.65;;;5.10;99.90;;;;;;5017476;28;20043;-64
2023/01/03 12:40:51;;;;;;;79.55;42.75;;;5.20;99.90;;;;;;5018745;28;20042;-66
2023/01/03 12:43:17;;;;;;;79.10;41.00;;;5.10;99.90;;;;;;5016671;28;20152;-65
2023/01/03 12:45:55;;;;;;;85.60;48.40;;;5.20;99.90;;;;;;5018289;28;20041;-65
2023/01/03 12:48:31;;;;;;;87.93;43.70;;;5.10;99.90;;;;;;5017394;28;20052;-65
2023/01/03 12:50:57;;;;;;;89.32;48.20;;;5.20;99.90;;;;;;5018431;28;20044;-63
2023/01/03 12:53:54;;;;;;;94.38;48.30;;;5.40;99.90;;;;;;5019088;28;20370;-62
2023/01/03 12:56:44;;;;;;;82.95;44.00;;;5.20;99.90;;;;;;5018019;28;20046;-63
2023/01/03 12:59:35;;;;;;;85.72;43.00;;;5.70;99.90;;;;;;5017371;28;20124;-63
2023/01/03 13:02:33;;;;;;;91.57;48.78;;;5.60;99.90;;;;;;5046688;28;20120;-63
2023/01/03 13:05:40;;;;;;;90.65;49.67;;;5.70;99.90;;;;;;4996192;28;21392;-63
2023/01/03 13:08:25;;;;;;;88.43;47.83;;;5.60;99.90;;;;;;5016376;28;20092;-63
2023/01/03 13:10:55;;;;;;;88.53;47.08;;;5.50;99.90;;;;;;5019460;28;20399;-62
2023/01/03 13:13:21;;;;;;;85.65;48.45;;;5.70;99.90;;;;;;5017453;28;20734;-65
2023/01/03 13:15:47;;;;;;;89.50;47.67;;;5.70;99.90;;;;;;5017509;28;20042;-64
2023/01/03 13:18:16;;;;;;;85.18;46.67;;;5.80;99.90;;;;;;5016810;28;20141;-63
2023/01/03 13:20:42;;;;;;;86.82;45.60;;;5.60;99.90;;;;;;5018367;28;20040;-64
2023/01/03 13:23:20;;;;;;;77.90;44.05;;;6.00;99.90;;;;;;5000316;28;20041;-63
2023/01/03 13:26:19;;;;;;;83.93;46.30;;;5.80;99.90;;;;;;5000800;28;20159;-65
2023/01/03 13:28:45;;;;;;;77.93;42.92;;;5.80;99.90;;;;;;5016503;28;20422;-64
2023/01/03 13:31:16;;;;;;;85.47;46.72;;;6.00;99.90;;;;;;5016278;28;20336;-64
2023/01/03 13:33:52;;;;;;;75.72;42.08;;;6.00;99.90;;;;;;5017876;28;20033;-64
2023/01/03 13:36:18;;;;;;;73.78;42.75;;;5.70;99.90;;;;;;5018903;28;20116;-63
2023/01/03 13:38:44;;;;;;;69.75;39.53;;;6.20;99.90;;;;;;5017002;28;20052;-64
2023/01/03 13:41:34;;;;;;;77.20;43.03;;;6.00;99.90;;;;;;5019019;28;20037;-64
2023/01/03 13:44:26;;;;;;;73.70;43.80;;;5.90;99.90;;;;;;5016941;28;20088;-64
2023/01/03 13:46:52;;;;;;;64.32;39.17;;;5.80;99.90;;;;;;4998196;28;20053;-65
2023/01/03 13:49:23;;;;;;;70.10;40.28;;;5.90;99.90;;;;;;5019481;28;20975;-63
2023/01/03 13:51:55;;;;;;;71.68;42.20;;;6.30;99.90;;;;;;5018627;28;20216;-64
2023/01/03 13:54:20;;;;;;;61.38;36.90;;;6.10;99.90;;;;;;5019192;28;20152;-63
2023/01/03 13:56:51;;;;;;;70.68;41.45;;;6.30;99.90;;;;;;5001204;28;21447;-65
2023/01/03 13:59:30;;;;;;;65.75;39.58;;;6.20;99.90;;;;;;5019665;28;20073;-64
2023/01/03 14:02:20;;;;;;;60.25;36.83;;;5.90;99.90;;;;;;5020788;28;20352;-64
2023/01/03 14:05:04;;;;;;;58.00;35.13;;;6.30;99.90;;;;;;5018624;28;20369;-64
2023/01/03 14:07:51;;;;;;;56.25;32.72;;;5.90;99.90;;;;;;5020506;28;20129;-62
2023/01/03 14:10:38;;;;;;;59.15;36.20;;;6.30;99.90;;;;;;5035446;28;20411;-64